Hovedside
METAR-TAF:

METAR-TAF

Lufthavner :

Oslo lufthavn (Gardermoen)

Oslo, Norge

breddegrad: 60-12N, lengdegrad: 011-05E, høyde over havet: 208 m

Gjeldene værobservasjon

Denne rapporten ble laget for 12 minutter siden, klokken 04:50 UTC
Vind 4 kt fra Nord-nordøst
Temperatur 10°C
Luftfuktighet 50%
Trykk 1015 hPa
Sikt 10 km eller mer
ingen skyer under 1500 m og ingen bygeskyer

METAR: ENGM 250450Z 03004KT CAVOK 10/M00 Q1015 NOSIG

Tid: 07:02 (05:02 UTC)

Varsel

Varsel gyldig fra 25. klokken 00 UTC til 25. klokken 24 UTC
Vind 7 kt fra Nordøst
Sikt 10 km eller mer
Få skyer i en høyde av 3000 ft
Brutte skyer i en høyde av 6000 ft
Midlertidig
fra 25. klokken 12 UTC til 25. klokken 20 UTC
Vind 12 kt fra Øst-sørøst med vindkast opp mot 25 kt
Få skyer i en høyde av 4000 ft, Bygeskyer.
Brutte skyer i en høyde av 6000 ft

TAF: ENGM 2500/2524 04007KT 9999 FEW030 BKN060 TEMPO 2512/2520 11012G25KT FEW040CB BKN060

Værobservasjoner og værvarsel for over 4000 flyplasser (METAR- og TAF-rapporter).

Tilgjengelige stasjoner er representert av de røde og gule prikkene på kartet.

Hold musepekeren over prikken for å se navnet på stasjonen.

Klikk så for å se værobservasjoner og -varsler.

For å forandre kartet kan du klikke på den grønne knappen med svart kryss for å zoome inn, på den grønne knappen med strek for å zoome ut, eller på de grønne pilene for å se tilstøtende kart.


METAR-TAF: